Time;durP1;ratioP1;P1;durP2;ratioP2;P2;SDS_P1;SDS_P2;PMS_P1;PMS_P2;Temp;Humidity;BMP_temperature;BMP_pressure;BME280_temperature;BME280_humidity;BME280_pressure;Samples;Min_cycle;Max_cycle;Signal;HPM_P1;HPM_P2
2022/09/07 00:00:31;;;;;;;6.50;6.00;;;;;;;18.07;81.85;95341.34;5053697;28;20861;-82
2022/09/07 00:02:59;;;;;;;6.17;5.63;;;;;;;18.00;82.04;95337.69;5089119;28;20451;-82
2022/09/07 00:05:27;;;;;;;6.17;5.57;;;;;;;17.94;82.14;95347.16;5089128;28;20440;-82
2022/09/07 00:07:54;;;;;;;6.80;6.17;;;;;;;17.87;82.63;95346.13;5088851;28;20532;-80
2022/09/07 00:10:21;;;;;;;7.33;6.30;;;;;;;17.85;82.21;95342.78;5086170;28;20795;-80
2022/09/07 00:12:48;;;;;;;7.10;5.40;;;;;;;17.88;82.33;95343.28;5075300;28;20441;-79
2022/09/07 00:15:15;;;;;;;8.40;5.73;;;;;;;17.91;82.03;95344.78;5075245;28;20870;-80
2022/09/07 00:17:42;;;;;;;6.20;5.70;;;;;;;17.80;81.90;95345.94;5075316;28;20440;-79
2022/09/07 00:20:11;;;;;;;5.17;4.77;;;;;;;17.69;82.28;95348.09;5075141;28;20485;-80
2022/09/07 00:22:39;;;;;;;7.93;5.70;;;;;;;17.61;82.46;95346.19;5075154;28;20479;-79
2022/09/07 00:25:06;;;;;;;5.63;5.17;;;;;;;17.38;82.99;95345.16;5075149;28;20443;-79
2022/09/07 00:27:33;;;;;;;6.47;5.97;;;;;;;17.49;83.09;95348.31;5075191;28;20827;-80
2022/09/07 00:30:00;;;;;;;5.77;5.37;;;;;;;17.53;82.61;95343.53;5075358;28;20449;-79
2022/09/07 00:32:27;;;;;;;6.70;6.10;;;;;;;17.50;82.37;95341.19;5075236;28;20478;-80
2022/09/07 00:34:53;;;;;;;5.50;5.13;;;;;;;17.49;82.36;95343.00;5075371;28;20440;-80
2022/09/07 00:37:21;;;;;;;5.80;5.33;;;;;;;17.47;82.20;95344.16;5075044;28;20511;-80
2022/09/07 00:39:49;;;;;;;6.40;5.97;;;;;;;17.52;81.91;95347.16;5074757;28;20894;-80
2022/09/07 00:42:18;;;;;;;5.30;5.00;;;;;;;17.50;81.71;95354.47;5075069;28;20444;-79
2022/09/07 00:45:07;;;;;;;6.50;5.90;;;;;;;17.58;80.71;95347.34;5075127;28;20440;-80
2022/09/07 00:47:41;;;;;;;5.80;5.20;;;;;;;17.52;80.90;95348.00;5074792;28;20452;-80
2022/09/07 00:50:15;;;;;;;5.00;4.70;;;;;;;17.56;80.42;95348.50;5074632;28;20844;-80
2022/09/07 00:52:46;;;;;;;7.10;5.67;;;;;;;17.53;80.57;95351.47;5055920;28;20880;-79
2022/09/07 00:55:16;;;;;;;5.63;4.97;;;;;;;17.55;80.22;95346.84;5074526;28;20475;-79
2022/09/07 00:57:48;;;;;;;9.57;5.33;;;;;;;17.57;79.82;95345.69;5074709;28;20501;-79
2022/09/07 01:00:15;;;;;;;9.03;4.87;;;;;;;17.51;79.49;95346.34;5074439;28;20571;-79
2022/09/07 01:02:42;;;;;;;6.37;5.07;;;;;;;17.54;79.87;95350.50;5039546;28;20437;-80
2022/09/07 01:05:15;;;;;;;7.03;4.50;;;;;;;17.59;80.15;95342.88;5074433;28;20456;-80
2022/09/07 01:07:44;;;;;;;6.20;5.70;;;;;;;17.54;79.14;95334.56;5074773;28;20445;-79
2022/09/07 01:10:11;;;;;;;4.83;4.43;;;;;;;17.58;79.09;95333.25;5074148;28;20488;-80
2022/09/07 01:12:38;;;;;;;8.03;4.40;;;;;;;17.54;78.75;95329.25;5074234;28;20441;-80
2022/09/07 01:15:06;;;;;;;5.30;4.87;;;;;;;17.57;78.73;95328.94;5074156;28;20448;-79
2022/09/07 01:17:45;;;;;;;5.30;4.70;;;;;;;17.51;78.64;95330.41;5039821;28;20441;-79
2022/09/07 01:20:48;;;;;;;5.30;4.90;;;;;;;17.41;78.93;95331.56;5074335;28;20477;-80
2022/09/07 01:24:08;;;;;;;4.90;4.50;;;;;;;17.43;78.98;95325.09;5030571;28;20442;-79
2022/09/07 01:27:21;;;;;;;5.93;5.43;;;;;;;17.37;78.98;95324.91;5032091;28;20457;-80
2022/09/07 01:29:56;;;;;;;5.43;5.00;;;;;;;17.37;78.86;95332.88;5031853;28;20442;-79
2022/09/07 01:32:34;;;;;;;6.70;4.90;;;;;;;17.33;78.68;95319.91;5031977;28;20540;-80
2022/09/07 01:35:03;;;;;;;5.93;4.70;;;;;;;17.28;78.39;95324.03;5031643;28;20450;-80
2022/09/07 01:37:40;;;;;;;5.57;5.17;;;;;;;17.28;78.99;95330.16;5031612;28;20443;-80
2022/09/07 01:40:14;;;;;;;5.87;5.20;;;;;;;17.24;78.93;95326.19;5031480;28;20511;-80
2022/09/07 01:42:49;;;;;;;10.97;5.20;;;;;;;17.12;78.72;95324.00;5031690;28;20963;-80
2022/09/07 01:45:23;;;;;;;6.20;5.10;;;;;;;17.12;79.09;95327.47;5031776;28;20480;-79
2022/09/07 01:47:54;;;;;;;5.63;5.10;;;;;;;17.07;80.00;95328.94;5031551;28;20450;-79
2022/09/07 01:50:27;;;;;;;7.60;6.87;;;;;;;16.85;81.95;95333.78;5031467;28;20528;-80
2022/09/07 01:52:58;;;;;;;7.00;6.30;;;;;;;16.68;83.39;95338.16;5031507;28;20446;-79
2022/09/07 01:55:27;;;;;;;9.10;7.07;;;;;;;16.77;83.09;95324.94;5031580;28;20465;-80
2022/09/07 01:57:59;;;;;;;13.13;6.70;;;;;;;16.85;83.30;95325.00;5031365;28;20446;-79
2022/09/07 02:00:27;;;;;;;12.30;7.40;;;;;;;16.92;83.13;95323.38;5055996;28;20476;-81
2022/09/07 02:02:59;;;;;;;8.50;4.93;;;;;;;16.97;82.55;95329.03;5073249;28;20449;-80
2022/09/07 02:05:32;;;;;;;6.80;5.63;;;;;;;16.97;81.78;95321.09;5073406;28;20541;-79
2022/09/07 02:08:03;;;;;;;7.27;5.73;;;;;;;17.04;80.34;95319.47;5073395;28;20528;-79
2022/09/07 02:10:36;;;;;;;5.93;5.37;;;;;;;17.03;79.24;95320.44;5072974;28;20483;-79
2022/09/07 02:13:08;;;;;;;6.40;4.67;;;;;;;17.06;78.88;95316.66;5073080;28;20452;-80
2022/09/07 02:15:44;;;;;;;6.10;4.13;;;;;;;16.98;78.73;95318.28;5073043;28;20932;-80
2022/09/07 02:18:13;;;;;;;5.73;4.73;;;;;;;17.02;77.95;95318.78;5073110;28;20446;-81
2022/09/07 02:20:46;;;;;;;4.03;3.70;;;;;;;16.96;77.81;95317.59;5073364;28;20523;-81
2022/09/07 02:23:18;;;;;;;4.63;4.23;;;;;;;16.93;78.32;95315.28;5073091;28;20939;-80
2022/09/07 02:25:52;;;;;;;5.03;3.83;;;;;;;16.94;78.14;95316.09;5072740;28;20969;-80
2022/09/07 02:28:26;;;;;;;4.57;4.20;;;;;;;16.93;78.40;95306.50;5072933;28;20483;-79
2022/09/07 02:30:54;;;;;;;5.20;4.00;;;;;;;16.95;78.14;95307.16;5073003;28;20935;-80
2022/09/07 02:33:22;;;;;;;4.20;3.90;;;;;;;16.95;77.96;95307.16;5072649;28;20954;-80
2022/09/07 02:35:49;;;;;;;4.53;4.13;;;;;;;16.97;77.80;95313.13;5073044;28;20855;-79
2022/09/07 02:38:15;;;;;;;4.50;4.10;;;;;;;16.98;77.61;95307.66;5072785;28;20447;-79
2022/09/07 02:40:42;;;;;;;4.00;3.70;;;;;;;16.95;77.38;95312.47;5073038;28;20506;-80
2022/09/07 02:43:11;;;;;;;5.60;4.20;;;;;;;16.86;77.72;95302.81;5072692;28;20451;-79
2022/09/07 02:45:52;;;;;;;4.80;4.40;;;;;;;16.93;77.25;95302.03;5054219;28;20455;-80
2022/09/07 02:48:30;;;;;;;3.90;3.60;;;;;;;16.88;77.60;95306.13;5039964;28;20452;-79
2022/09/07 02:51:08;;;;;;;5.20;3.73;;;;;;;16.89;77.83;95315.75;5072564;28;20513;-79
2022/09/07 02:53:47;;;;;;;4.23;3.83;;;;;;;16.90;77.13;95320.06;5072749;28;20449;-80
2022/09/07 02:56:28;;;;;;;6.00;4.13;;;;;;;16.91;77.07;95319.91;5072569;28;20452;-80
2022/09/07 02:59:04;;;;;;;4.67;4.17;;;;;;;16.93;77.07;95314.44;5053969;28;20444;-80
2022/09/07 03:01:40;;;;;;;6.00;4.17;;;;;;;16.96;76.63;95322.91;5072381;28;20977;-79
2022/09/07 03:04:13;;;;;;;4.23;3.80;;;;;;;16.98;76.66;95317.44;5072769;28;20444;-79
2022/09/07 03:06:43;;;;;;;4.80;3.70;;;;;;;17.02;76.29;95329.38;5072469;28;20787;-80
2022/09/07 03:09:15;;;;;;;4.00;3.60;;;;;;;17.00;76.28;95326.91;5072466;28;20476;-79
2022/09/07 03:11:42;;;;;;;3.77;3.47;;;;;;;16.98;76.28;95328.06;5072329;28;20542;-79
2022/09/07 03:14:14;;;;;;;4.10;3.70;;;;;;;16.92;75.25;95328.69;5072407;28;20454;-80
2022/09/07 03:16:40;;;;;;;3.93;3.57;;;;;;;16.83;75.40;95327.81;5072646;28;20943;-79
2022/09/07 03:19:09;;;;;;;3.47;3.27;;;;;;;16.81;75.74;95326.31;5072756;28;20436;-79
2022/09/07 03:21:36;;;;;;;5.10;4.30;;;;;;;16.82;75.65;95330.63;5072180;28;20888;-79
2022/09/07 03:24:02;;;;;;;4.17;3.80;;;;;;;16.82;75.59;95322.69;5072496;28;20506;-80
2022/09/07 03:26:29;;;;;;;7.30;4.13;;;;;;;16.81;75.47;95323.69;5072134;28;20453;-79
2022/09/07 03:28:56;;;;;;;4.47;4.03;;;;;;;16.81;75.21;95316.56;5072396;28;20448;-79
2022/09/07 03:31:23;;;;;;;4.10;3.80;;;;;;;16.76;75.78;95317.97;5068043;28;20456;-79
2022/09/07 03:33:50;;;;;;;5.60;3.90;;;;;;;16.78;75.28;95326.63;5052108;28;20453;-80
2022/09/07 03:36:18;;;;;;;7.03;4.03;;;;;;;16.71;75.20;95327.25;5052275;28;20448;-79
2022/09/07 03:38:45;;;;;;;6.03;4.47;;;;;;;16.72;76.27;95325.44;5017051;28;20953;-79
2022/09/07 03:41:12;;;;;;;4.33;3.93;;;;;;;16.70;75.98;95341.47;5052337;28;20493;-79
2022/09/07 03:43:39;;;;;;;3.73;3.43;;;;;;;16.59;76.68;95339.06;5052331;28;20533;-80
2022/09/07 03:46:09;;;;;;;4.00;3.60;;;;;;;16.56;76.35;95333.25;5053137;28;20465;-79
2022/09/07 03:48:37;;;;;;;4.50;4.10;;;;;;;16.36;76.43;95335.25;5056008;28;20494;-79
2022/09/07 03:51:06;;;;;;;3.87;3.57;;;;;;;16.26;76.38;95327.41;5055775;28;20532;-79
2022/09/07 03:53:35;;;;;;;4.73;4.33;;;;;;;16.35;76.24;95331.78;5055759;28;20511;-80
2022/09/07 03:56:05;;;;;;;4.70;3.90;;;;;;;16.39;76.13;95329.66;5056171;28;20445;-80
2022/09/07 03:58:33;;;;;;;4.87;4.33;;;;;;;16.40;76.02;95336.63;5055868;28;20452;-79
2022/09/07 04:01:04;;;;;;;6.73;3.67;;;;;;;16.33;76.77;95332.94;5055953;28;20484;-78
2022/09/07 04:03:31;;;;;;;5.33;4.43;;;;;;;16.29;76.52;95339.53;5055549;28;20471;-78
2022/09/07 04:05:58;;;;;;;6.27;4.10;;;;;;;16.29;76.50;95342.16;5055602;28;20454;-79
2022/09/07 04:08:25;;;;;;;4.40;4.00;;;;;;;16.24;77.20;95340.00;5055524;28;20526;-80
2022/09/07 04:10:56;;;;;;;4.60;4.07;;;;;;;16.05;77.21;95337.50;5055570;28;20906;-80
2022/09/07 04:13:22;;;;;;;4.40;3.70;;;;;;;16.06;77.05;95341.81;5055313;28;20501;-82
2022/09/07 04:15:49;;;;;;;4.10;3.50;;;;;;;16.06;77.17;95342.63;5055282;28;20869;-80
2022/09/07 04:18:16;;;;;;;10.20;4.60;;;;;;;16.31;81.03;95345.50;5055205;28;20853;-79
2022/09/07 04:20:43;;;;;;;8.63;6.03;;;;;;;16.82;80.55;95354.50;5020090;28;20488;-78
2022/09/07 04:23:10;;;;;;;10.60;5.70;;;;;;;17.31;77.35;95352.88;5055237;28;20445;-79
2022/09/07 04:25:37;;;;;;;7.73;5.33;;;;;;;17.79;75.29;95365.53;5055307;28;20844;-80
2022/09/07 04:28:05;;;;;;;7.73;5.43;;;;;;;18.28;73.29;95360.28;5055122;28;20454;-80
2022/09/07 04:30:34;;;;;;;5.07;4.63;;;;;;;18.82;70.64;95363.28;5055240;28;20469;-81
2022/09/07 04:33:01;;;;;;;5.23;4.83;;;;;;;18.99;69.25;95356.91;5054922;28;20492;-80
2022/09/07 04:35:28;;;;;;;5.30;4.70;;;;;;;19.38;67.04;95364.94;5053027;28;20442;-80
2022/09/07 04:37:54;;;;;;;8.53;5.73;;;;;;;19.58;66.08;95361.88;5055385;28;20449;-80
2022/09/07 04:40:21;;;;;;;7.87;5.10;;;;;;;20.06;64.72;95358.13;5055175;28;20473;-82
2022/09/07 04:42:48;;;;;;;9.57;6.30;;;;;;;20.26;63.30;95359.31;5055794;28;20485;-82
2022/09/07 04:45:17;;;;;;;9.57;5.60;;;;;;;20.11;64.05;95358.41;5055781;28;20449;-82
2022/09/07 04:47:47;;;;;;;7.20;4.97;;;;;;;20.28;62.50;95359.13;5055623;28;20441;-82
2022/09/07 04:50:14;;;;;;;6.17;5.30;;;;;;;20.24;61.91;95360.47;5037235;28;20446;-81
2022/09/07 04:52:41;;;;;;;11.00;4.90;;;;;;;20.35;61.02;95355.56;5055285;28;20446;-80
2022/09/07 04:55:08;;;;;;;8.60;5.70;;;;;;;20.35;61.87;95357.41;5055742;28;20445;-80
2022/09/07 04:57:35;;;;;;;9.30;5.60;;;;;;;20.55;62.01;95363.13;5055450;28;20452;-79
2022/09/07 05:00:02;;;;;;;11.13;5.60;;;;;;;20.95;61.09;95362.72;5055767;28;20438;-80
2022/09/07 05:02:30;;;;;;;5.47;4.80;;;;;;;21.44;59.90;95372.09;5054936;28;20490;-82
2022/09/07 05:04:57;;;;;;;12.23;4.77;;;;;;;21.83;58.27;95363.72;5055444;28;20458;-80
2022/09/07 05:07:24;;;;;;;6.43;4.33;;;;;;;22.16;56.22;95354.25;5070987;28;20452;-80
2022/09/07 05:09:51;;;;;;;4.77;4.27;;;;;;;22.37;55.49;95363.31;5074936;28;20503;-81
2022/09/07 05:12:17;;;;;;;6.20;3.90;;;;;;;22.33;54.43;95360.19;5065998;28;20936;-79
2022/09/07 05:14:44;;;;;;;6.13;4.37;;;;;;;22.29;55.23;95364.28;5055775;28;20858;-81
2022/09/07 05:17:11;;;;;;;4.73;4.00;;;;;;;22.28;55.08;95367.97;5055625;28;20442;-81
2022/09/07 05:19:39;;;;;;;7.50;3.70;;;;;;;22.32;54.19;95371.09;5065312;28;20456;-81
2022/09/07 05:22:06;;;;;;;4.80;4.30;;;;;;;22.38;54.31;95367.66;5056273;28;20496;-80
2022/09/07 05:24:35;;;;;;;5.90;4.40;;;;;;;22.21;55.28;95378.56;5055997;28;20453;-80
2022/09/07 05:27:02;;;;;;;4.27;3.77;;;;;;;22.06;54.55;95371.63;5073056;28;20464;-79
2022/09/07 05:29:29;;;;;;;4.90;4.40;;;;;;;22.10;54.30;95364.91;5074848;28;20949;-80
2022/09/07 05:31:57;;;;;;;4.40;4.10;;;;;;;22.19;55.00;95363.75;5070484;28;20455;-80
2022/09/07 05:34:24;;;;;;;5.40;4.40;;;;;;;22.29;55.50;95358.09;5063443;28;20532;-79
2022/09/07 05:36:52;;;;;;;4.20;3.77;;;;;;;22.38;54.47;95368.47;5065195;28;20472;-79
2022/09/07 05:39:19;;;;;;;4.73;3.83;;;;;;;22.53;54.37;95361.19;5054646;28;20452;-79
2022/09/07 05:41:47;;;;;;;6.30;4.50;;;;;;;22.47;54.56;95366.50;5063321;28;20475;-79
2022/09/07 05:44:13;;;;;;;5.67;4.37;;;;;;;22.61;55.84;95362.09;5054980;28;20449;-79
2022/09/07 05:46:40;;;;;;;6.40;4.00;;;;;;;22.65;54.33;95353.50;5073100;28;20574;-80
2022/09/07 05:49:07;;;;;;;4.13;3.77;;;;;;;22.79;53.71;95365.94;5074900;28;20464;-79
2022/09/07 05:51:35;;;;;;;4.93;4.03;;;;;;;23.06;53.84;95361.66;5068373;28;20487;-79
2022/09/07 05:54:04;;;;;;;4.53;4.00;;;;;;;23.16;53.34;95354.13;5071641;28;20539;-80
2022/09/07 05:56:33;;;;;;;10.37;4.20;;;;;;;23.39;53.02;95353.81;5069584;28;20440;-80
2022/09/07 05:59:00;;;;;;;6.30;4.03;;;;;;;23.53;52.07;95353.91;5073485;28;20445;-80
2022/09/07 06:01:27;;;;;;;7.70;4.63;;;;;;;23.52;51.43;95354.94;5072998;28;20495;-79
2022/09/07 06:03:54;;;;;;;10.87;4.70;;;;;;;23.51;50.99;95354.09;5073510;28;20869;-81
2022/09/07 06:06:20;;;;;;;9.33;4.60;;;;;;;23.23;52.47;95348.81;5072955;28;20444;-81
2022/09/07 06:08:50;;;;;;;9.40;3.93;;;;;;;23.11;53.30;95353.03;5072211;28;20449;-81
2022/09/07 06:11:20;;;;;;;8.57;5.00;;;;;;;22.95;53.41;95353.34;5073031;28;20452;-80
2022/09/07 06:13:47;;;;;;;8.13;3.97;;;;;;;22.87;53.40;95365.03;5073192;28;20854;-81
2022/09/07 06:16:15;;;;;;;5.47;4.13;;;;;;;22.81;53.92;95363.09;5073124;28;20835;-81
2022/09/07 06:18:43;;;;;;;12.37;5.33;;;;;;;22.94;53.24;95362.41;5072848;28;20494;-81
2022/09/07 06:21:12;;;;;;;5.10;4.50;;;;;;;22.94;53.59;95367.75;5072925;28;20480;-81
2022/09/07 06:23:40;;;;;;;18.63;5.30;;;;;;;23.11;53.28;95358.38;5072956;28;20445;-81
2022/09/07 06:26:08;;;;;;;9.13;4.87;;;;;;;23.27;53.22;95358.09;5072724;28;20437;-81
2022/09/07 06:28:38;;;;;;;4.50;4.13;;;;;;;23.39;50.96;95361.84;5072712;28;20449;-81
2022/09/07 06:31:07;;;;;;;5.10;4.70;;;;;;;23.44;49.67;95356.75;5072629;28;20440;-81
2022/09/07 06:33:34;;;;;;;4.40;3.90;;;;;;;23.62;51.25;95366.13;5072722;28;20532;-82
2022/09/07 06:36:04;;;;;;;5.60;3.87;;;;;;;23.72;50.41;95363.94;5072723;28;20456;-81
2022/09/07 06:38:31;;;;;;;4.60;4.20;;;;;;;23.71;50.48;95367.63;5072459;28;20436;-81
2022/09/07 06:41:01;;;;;;;4.33;3.53;;;;;;;23.57;51.25;95374.78;5072570;28;20502;-81
2022/09/07 06:43:28;;;;;;;4.30;3.83;;;;;;;23.70;52.25;95371.31;5072502;28;20974;-81
2022/09/07 06:45:56;;;;;;;4.83;3.83;;;;;;;23.88;51.44;95371.59;5072512;28;20498;-81
2022/09/07 06:48:23;;;;;;;4.67;3.67;;;;;;;23.84;50.41;95364.16;5072232;28;20444;-81
2022/09/07 06:50:56;;;;;;;4.90;3.60;;;;;;;24.09;50.68;95362.63;5072581;28;20942;-82
2022/09/07 06:53:23;;;;;;;5.20;3.30;;;;;;;24.32;50.00;95363.13;5037405;28;20913;-81
2022/09/07 06:55:50;;;;;;;3.50;3.30;;;;;;;24.61;49.83;95363.78;5072350;28;21009;-81
2022/09/07 06:58:17;;;;;;;4.07;3.73;;;;;;;24.71;48.91;95365.03;5072350;28;20441;-81
2022/09/07 07:00:44;;;;;;;6.27;3.67;;;;;;;24.76;48.05;95368.94;5072128;28;20444;-81
2022/09/07 07:03:13;;;;;;;11.90;3.57;;;;;;;24.83;48.14;95369.75;5072210;28;20481;-81
2022/09/07 07:05:39;;;;;;;3.93;3.63;;;;;;;24.89;47.95;95374.31;5072184;28;20812;-79
2022/09/07 07:08:06;;;;;;;4.33;3.93;;;;;;;25.04;48.29;95371.44;5072422;28;20449;-81
2022/09/07 07:10:37;;;;;;;8.50;3.63;;;;;;;25.14;47.48;95372.66;5072209;28;20468;-82
2022/09/07 07:13:04;;;;;;;7.97;3.77;;;;;;;25.18;47.19;95371.25;5072275;28;20840;-81
2022/09/07 07:15:31;;;;;;;3.97;3.47;;;;;;;25.24;46.37;95380.31;5072296;28;20441;-82
2022/09/07 07:17:58;;;;;;;5.53;3.47;;;;;;;25.17;47.23;95374.13;5072310;28;20980;-81
2022/09/07 07:20:26;;;;;;;4.53;2.90;;;;;;;25.27;46.86;95369.16;5072143;28;20830;-81
2022/09/07 07:22:53;;;;;;;4.00;3.53;;;;;;;25.40;47.17;95387.91;5076517;28;20944;-81
2022/09/07 07:25:20;;;;;;;4.43;4.07;;;;;;;25.46;46.29;95375.53;5075973;28;20954;-81
2022/09/07 07:27:47;;;;;;;5.87;3.53;;;;;;;25.45;45.65;95373.88;5076155;28;20455;-82
2022/09/07 07:30:15;;;;;;;5.20;3.30;;;;;;;25.48;46.34;95362.72;5076605;28;20777;-82
2022/09/07 07:32:42;;;;;;;3.43;3.13;;;;;;;25.67;46.07;95377.97;5077288;28;20482;-81
2022/09/07 07:35:10;;;;;;;3.20;3.00;;;;;;;25.78;45.98;95371.94;5076225;28;20438;-82
2022/09/07 07:37:39;;;;;;;3.03;2.73;;;;;;;25.58;44.91;95373.84;5076039;28;20452;-82
2022/09/07 07:40:08;;;;;;;4.43;3.53;;;;;;;25.57;44.51;95374.88;5076055;28;20455;-81
2022/09/07 07:42:37;;;;;;;4.33;3.93;;;;;;;25.15;45.61;95379.69;5075810;28;20479;-81
2022/09/07 07:45:05;;;;;;;4.80;3.90;;;;;;;25.29;46.37;95372.44;5076133;28;20441;-81
2022/09/07 07:47:31;;;;;;;4.20;3.67;;;;;;;25.36;46.76;95375.94;5040745;28;20440;-81
2022/09/07 07:49:58;;;;;;;5.20;3.50;;;;;;;25.30;45.42;95380.31;5075524;28;20931;-81
2022/09/07 07:52:25;;;;;;;3.87;3.57;;;;;;;25.14;45.83;95378.03;5075539;28;20449;-81
2022/09/07 07:54:53;;;;;;;4.87;3.53;;;;;;;25.23;46.63;95375.97;5075500;28;20444;-81
2022/09/07 07:57:20;;;;;;;3.43;3.20;;;;;;;25.42;45.33;95376.97;5075831;28;20444;-81
2022/09/07 07:59:47;;;;;;;4.37;3.47;;;;;;;25.56;45.04;95375.91;5040252;28;20498;-81
2022/09/07 08:02:16;;;;;;;3.30;3.10;;;;;;;25.85;45.57;95380.81;5075602;28;20484;-81
2022/09/07 08:04:43;;;;;;;3.43;3.20;;;;;;;25.70;44.33;95382.91;5075536;28;20452;-81
2022/09/07 08:07:11;;;;;;;4.40;3.60;;;;;;;25.63;44.61;95377.53;5075492;28;20440;-81
2022/09/07 08:09:39;;;;;;;5.50;3.33;;;;;;;25.86;44.22;95376.25;5075078;28;20575;-81
2022/09/07 08:12:07;;;;;;;6.53;3.10;;;;;;;25.85;44.68;95372.75;5075433;28;20935;-82
2022/09/07 08:14:39;;;;;;;3.50;3.20;;;;;;;25.98;43.90;95368.34;5075084;28;20441;-82
2022/09/07 08:17:06;;;;;;;4.63;3.07;;;;;;;25.77;44.83;95364.94;5075179;28;20441;-81
2022/09/07 08:19:33;;;;;;;3.53;3.23;;;;;;;25.91;44.81;95363.00;5075203;28;20440;-81
2022/09/07 08:22:00;;;;;;;8.47;5.60;;;;;;;26.09;43.99;95360.44;5075052;28;20483;-83
2022/09/07 08:24:26;;;;;;;8.20;4.40;;;;;;;25.89;43.69;95363.22;5075096;28;20444;-82
2022/09/07 08:26:53;;;;;;;8.60;3.80;;;;;;;26.13;43.14;95366.22;5073115;28;20931;-82
2022/09/07 08:29:21;;;;;;;6.97;4.50;;;;;;;26.10;43.60;95367.47;5039704;28;20935;-82
2022/09/07 08:31:48;;;;;;;5.47;5.07;;;;;;;26.15;43.71;95364.13;5074376;28;20448;-82
2022/09/07 08:37:54;;;;;;;3.73;3.30;;;;;;;25.67;44.84;95361.84;5039321;28;20908;-82
2022/09/07 08:40:21;;;;;;;7.00;3.53;;;;;;;25.90;44.66;95358.66;5056292;28;20479;-82
2022/09/07 08:43:03;;;;;;;3.33;3.03;;;;;;;26.02;43.48;95348.91;5039758;28;20481;-82
2022/09/07 08:45:35;;;;;;;3.40;2.90;;;;;;;26.13;43.37;95350.06;5074779;28;20444;-81
2022/09/07 08:48:04;;;;;;;4.00;3.50;;;;;;;26.10;44.06;95347.81;5074939;28;20445;-81
2022/09/07 08:50:35;;;;;;;3.27;3.07;;;;;;;25.87;44.68;95341.09;5074567;28;20528;-81
2022/09/07 08:53:06;;;;;;;7.00;3.40;;;;;;;26.00;44.37;95342.88;5074930;28;20445;-82
2022/09/07 08:55:36;;;;;;;9.53;4.10;;;;;;;26.15;44.04;95337.22;5074264;28;20920;-83
2022/09/07 08:58:11;;;;;;;8.43;3.70;;;;;;;26.30;42.69;95336.91;5074663;28;20821;-82
2022/09/07 09:00:40;;;;;;;7.77;3.77;;;;;;;26.48;43.69;95326.28;5074418;28;20452;-82
2022/09/07 09:03:19;;;;;;;7.83;3.37;;;;;;;26.29;43.68;95328.03;5074377;28;20483;-81
2022/09/07 09:05:59;;;;;;;4.17;3.13;;;;;;;26.17;44.20;95327.06;5074227;28;20446;-82
2022/09/07 09:08:50;;;;;;;4.87;3.20;;;;;;;26.20;43.82;95326.63;5074351;28;20445;-82
2022/09/07 09:11:26;;;;;;;5.83;5.13;;;;;;;26.17;43.79;95321.69;5074191;28;20788;-82
2022/09/07 09:14:02;;;;;;;7.37;4.00;;;;;;;26.20;43.52;95319.38;5074212;28;20531;-82
2022/09/07 09:16:35;;;;;;;5.10;3.93;;;;;;;26.32;44.66;95311.47;5074311;28;20480;-82
2022/09/07 09:19:14;;;;;;;3.37;3.00;;;;;;;26.49;44.33;95307.22;5074218;28;20453;-82
2022/09/07 09:21:42;;;;;;;5.00;3.70;;;;;;;26.60;44.02;95305.72;5038429;28;20441;-82
2022/09/07 09:24:14;;;;;;;4.10;3.70;;;;;;;26.71;44.25;95309.53;5073877;28;20862;-81
2022/09/07 09:26:43;;;;;;;6.23;3.50;;;;;;;26.63;43.62;95309.81;5071976;28;20437;-81
2022/09/07 09:29:14;;;;;;;3.73;3.43;;;;;;;26.55;43.46;95303.66;5073964;28;20436;-81
2022/09/07 09:31:43;;;;;;;4.00;3.63;;;;;;;26.61;44.80;95298.47;5038383;28;20827;-82
2022/09/07 09:34:12;;;;;;;3.97;3.57;;;;;;;26.57;44.07;95294.53;5073771;28;20441;-82
2022/09/07 09:36:44;;;;;;;4.63;4.27;;;;;;;26.64;43.29;95295.31;5073873;28;20452;-82
2022/09/07 09:39:25;;;;;;;4.43;4.13;;;;;;;26.76;44.27;95290.84;5073520;28;20449;-81
2022/09/07 09:41:52;;;;;;;6.70;3.80;;;;;;;26.93;44.95;95286.56;5073546;28;20444;-82
2022/09/07 09:44:19;;;;;;;3.40;3.10;;;;;;;27.07;43.65;95277.31;5072741;28;20448;-82
2022/09/07 09:46:53;;;;;;;4.47;4.07;;;;;;;27.00;42.53;95281.97;5073393;28;20471;-82
2022/09/07 09:49:24;;;;;;;6.23;3.83;;;;;;;26.88;43.25;95285.56;5073473;28;20489;-81
2022/09/07 09:51:52;;;;;;;4.20;3.80;;;;;;;26.78;44.27;95286.91;5073342;28;20972;-81
2022/09/07 09:54:25;;;;;;;4.20;3.80;;;;;;;26.61;44.63;95285.00;5073537;28;20927;-82
2022/09/07 09:56:52;;;;;;;4.53;4.13;;;;;;;26.34;44.53;95285.19;5073688;28;20470;-82
2022/09/07 09:59:26;;;;;;;4.67;4.17;;;;;;;26.37;44.32;95281.25;5073097;28;20441;-81
2022/09/07 10:01:54;;;;;;;4.93;4.13;;;;;;;26.44;45.45;95277.44;5073022;28;20926;-81
2022/09/07 10:04:31;;;;;;;3.83;3.53;;;;;;;26.52;44.86;95279.88;5073007;28;20440;-82
2022/09/07 10:07:07;;;;;;;6.57;4.27;;;;;;;26.44;44.94;95273.94;5073027;28;20448;-82
2022/09/07 10:09:36;;;;;;;4.17;3.77;;;;;;;26.41;45.68;95272.50;5073218;28;20507;-81
2022/09/07 10:12:05;;;;;;;4.00;3.70;;;;;;;26.47;45.02;95268.94;5073034;28;20440;-82
2022/09/07 10:14:34;;;;;;;10.13;4.20;;;;;;;26.39;45.68;95263.84;5073132;28;20448;-81
2022/09/07 10:17:11;;;;;;;5.17;4.60;;;;;;;26.43;45.62;95258.84;5072922;28;20437;-82
2022/09/07 10:19:40;;;;;;;4.97;4.57;;;;;;;26.34;44.30;95257.47;5072765;28;20931;-82
2022/09/07 10:22:21;;;;;;;4.50;4.10;;;;;;;26.19;45.80;95250.47;5072633;28;20911;-81
2022/09/07 10:24:48;;;;;;;4.37;3.97;;;;;;;26.24;45.31;95244.44;5072659;28;20848;-81
2022/09/07 10:27:30;;;;;;;4.50;3.87;;;;;;;26.15;45.33;95243.91;5073911;28;20452;-81
2022/09/07 10:29:57;;;;;;;4.20;3.90;;;;;;;26.25;46.44;95240.72;5072554;28;20813;-81
2022/09/07 10:32:35;;;;;;;4.40;4.10;;;;;;;26.36;46.29;95236.53;5072555;28;20455;-81
2022/09/07 10:35:14;;;;;;;9.00;4.57;;;;;;;26.43;47.06;95231.91;5072687;28;20457;-81
2022/09/07 10:37:52;;;;;;;3.83;3.53;;;;;;;26.42;47.48;95228.41;5072475;28;20448;-82
2022/09/07 10:40:29;;;;;;;3.57;3.30;;;;;;;26.37;46.35;95222.88;5073102;28;20779;-81
2022/09/07 10:43:06;;;;;;;4.20;3.90;;;;;;;26.13;46.53;95221.78;5072326;28;20491;-82
2022/09/07 10:45:43;;;;;;;4.70;4.07;;;;;;;26.11;47.94;95218.47;5072483;28;20480;-81
2022/09/07 10:48:17;;;;;;;5.40;4.53;;;;;;;26.09;48.66;95227.81;5070366;28;20439;-81
2022/09/07 10:50:48;;;;;;;4.50;4.10;;;;;;;25.84;48.38;95219.69;5072752;28;20471;-81
2022/09/07 10:53:45;;;;;;;6.50;4.10;;;;;;;25.75;48.86;95221.00;5072332;28;20856;-81
2022/09/07 10:56:17;;;;;;;6.73;3.97;;;;;;;25.75;48.60;95215.63;5029762;28;20557;-81
2022/09/07 10:58:59;;;;;;;4.50;4.20;;;;;;;25.87;48.47;95214.72;5029912;28;20446;-82
2022/09/07 11:01:39;;;;;;;5.87;4.57;;;;;;;26.03;47.80;95220.63;5029973;28;20447;-81
2022/09/07 11:04:46;;;;;;;5.43;4.10;;;;;;;25.89;47.24;95220.69;5029791;28;21054;-82
2022/09/07 11:07:27;;;;;;;4.80;4.47;;;;;;;26.06;47.48;95204.88;4971144;28;20812;-81
2022/09/07 11:09:59;;;;;;;5.37;4.87;;;;;;;26.16;47.86;95204.38;4970883;28;20480;-82
2022/09/07 11:12:30;;;;;;;5.03;4.53;;;;;;;26.21;47.28;95199.16;4971320;28;20941;-82
2022/09/07 11:15:09;;;;;;;4.50;4.13;;;;;;;26.30;46.46;95203.19;4971355;28;20445;-82
2022/09/07 11:17:43;;;;;;;6.63;4.90;;;;;;;26.38;47.57;95202.97;4971287;28;20441;-82
2022/09/07 11:20:21;;;;;;;4.53;4.13;;;;;;;26.48;47.53;95195.22;4971203;28;20548;-81
2022/09/07 11:22:52;;;;;;;5.20;4.80;;;;;;;26.48;46.79;95203.28;4970940;28;20485;-81
2022/09/07 11:25:26;;;;;;;4.47;4.17;;;;;;;26.59;46.31;95192.84;4970866;28;20508;-81
2022/09/07 11:27:57;;;;;;;4.53;4.20;;;;;;;26.59;46.84;95188.28;4971166;28;20448;-81
2022/09/07 11:30:30;;;;;;;4.87;4.53;;;;;;;26.57;47.51;95184.16;4971171;28;20453;-81
2022/09/07 11:33:06;;;;;;;4.50;4.20;;;;;;;26.33;46.27;95177.75;5025395;28;20478;-81
2022/09/07 11:35:44;;;;;;;4.83;4.50;;;;;;;26.46;47.39;95180.34;5029907;28;20442;-81
2022/09/07 11:38:19;;;;;;;4.67;4.37;;;;;;;26.34;47.11;95184.81;5029621;28;20446;-82
2022/09/07 11:40:58;;;;;;;4.77;4.33;;;;;;;26.33;46.68;95183.13;5029887;28;20449;-82
2022/09/07 11:43:30;;;;;;;4.83;4.47;;;;;;;26.29;46.67;95165.75;5038801;28;21085;-81
2022/09/07 11:46:01;;;;;;;9.40;4.97;;;;;;;26.27;47.75;95179.44;5071876;28;20577;-82
2022/09/07 11:48:33;;;;;;;5.30;4.80;;;;;;;26.25;47.64;95168.88;5071721;28;20445;-81
2022/09/07 11:51:08;;;;;;;9.53;4.60;;;;;;;26.39;47.31;95174.19;5072194;28;20796;-82
2022/09/07 11:53:39;;;;;;;6.27;3.90;;;;;;;26.39;46.65;95175.03;5071769;28;20436;-82